createdAt,value
2017-07-19T00:00:29.027Z,7.53
2017-07-19T00:03:00.070Z,7.60
2017-07-19T00:05:27.619Z,7.57
2017-07-19T00:07:55.898Z,7.73
2017-07-19T00:10:24.209Z,7.60
2017-07-19T00:12:51.732Z,7.37
2017-07-19T00:15:20.084Z,6.97
2017-07-19T00:17:47.609Z,7.13
2017-07-19T00:20:15.121Z,7.70
2017-07-19T00:22:43.440Z,7.43
2017-07-19T00:25:10.956Z,7.50
2017-07-19T00:27:39.255Z,7.23
2017-07-19T00:30:06.767Z,7.67
2017-07-19T00:32:34.293Z,7.77
2017-07-19T00:35:01.818Z,8.17
2017-07-19T00:37:30.117Z,7.90
2017-07-19T00:39:57.637Z,6.80
2017-07-19T00:42:25.947Z,7.63
2017-07-19T00:44:53.457Z,8.23
2017-07-19T00:47:20.990Z,7.40
2017-07-19T00:49:48.509Z,7.93
2017-07-19T00:52:16.041Z,7.20
2017-07-19T00:54:43.553Z,7.37
2017-07-19T00:57:11.085Z,7.57
2017-07-19T00:59:38.604Z,7.17
2017-07-19T01:02:06.149Z,8.00
2017-07-19T01:04:33.656Z,7.33
2017-07-19T01:07:01.941Z,7.47
2017-07-19T01:09:29.471Z,7.43
2017-07-19T01:11:56.983Z,7.40
2017-07-19T01:14:24.527Z,7.33
2017-07-19T01:16:52.049Z,7.50
2017-07-19T01:19:20.350Z,7.90
2017-07-19T01:21:47.862Z,8.60
2017-07-19T01:24:15.410Z,8.03
2017-07-19T01:26:42.921Z,9.07
2017-07-19T01:29:10.459Z,8.53
2017-07-19T01:31:38.742Z,7.97
2017-07-19T01:34:07.061Z,8.53
2017-07-19T01:36:34.580Z,8.17
2017-07-19T01:39:02.915Z,7.70
2017-07-19T01:41:30.442Z,8.10
2017-07-19T01:43:57.980Z,8.87
2017-07-19T01:46:26.271Z,8.80
2017-07-19T01:48:53.850Z,8.23
2017-07-19T01:51:21.357Z,8.53
2017-07-19T01:53:48.914Z,8.27
2017-07-19T01:56:16.437Z,8.17
2017-07-19T01:58:43.969Z,8.57
2017-07-19T02:01:11.488Z,8.30
2017-07-19T02:03:39.068Z,7.63
2017-07-19T02:06:06.665Z,8.00
2017-07-19T02:08:34.171Z,8.07
2017-07-19T02:11:01.718Z,8.53
2017-07-19T02:13:29.244Z,7.90
2017-07-19T02:15:56.781Z,8.33
2017-07-19T02:18:24.323Z,7.93
2017-07-19T02:20:52.618Z,7.77
2017-07-19T02:23:20.135Z,7.83
2017-07-19T02:25:47.675Z,8.80
2017-07-19T02:28:15.196Z,8.40
2017-07-19T02:30:42.736Z,8.00
2017-07-19T02:33:11.016Z,8.20
2017-07-19T02:35:38.552Z,8.53
2017-07-19T02:38:06.842Z,8.00
2017-07-19T02:40:35.145Z,8.43
2017-07-19T02:43:02.684Z,7.20
2017-07-19T02:45:30.235Z,7.90
2017-07-19T02:47:57.745Z,8.50
2017-07-19T02:50:25.295Z,8.57
2017-07-19T02:52:52.809Z,8.40
2017-07-19T02:55:21.125Z,8.00
2017-07-19T02:57:48.653Z,9.67
2017-07-19T03:00:16.173Z,8.17
2017-07-19T03:02:43.713Z,8.60
2017-07-19T03:05:11.240Z,8.13
2017-07-19T03:07:38.777Z,8.30
2017-07-19T03:10:06.294Z,9.23
2017-07-19T03:12:33.832Z,9.10
2017-07-19T03:15:01.394Z,8.53
2017-07-19T03:17:28.934Z,9.33
2017-07-19T03:19:56.458Z,8.33
2017-07-19T03:22:50.962Z,8.80
2017-07-19T03:25:18.473Z,7.93
2017-07-19T03:27:46.012Z,8.23
2017-07-19T03:30:13.580Z,8.50
2017-07-19T03:32:42.073Z,8.97
2017-07-19T03:35:09.603Z,8.37
2017-07-19T03:37:37.118Z,7.97
2017-07-19T03:40:04.626Z,8.60
2017-07-19T03:42:32.167Z,8.40
2017-07-19T03:44:59.686Z,8.63
2017-07-19T03:47:27.235Z,9.40
2017-07-19T03:49:54.744Z,9.50
2017-07-19T03:52:22.285Z,8.60
2017-07-19T03:54:49.812Z,8.70
2017-07-19T03:57:17.370Z,8.80
2017-07-19T03:59:44.920Z,8.97
2017-07-19T04:02:12.504Z,9.03
2017-07-19T04:04:40.090Z,9.60
2017-07-19T04:07:07.645Z,8.10
2017-07-19T04:09:35.242Z,9.17
2017-07-19T04:12:02.794Z,8.30
2017-07-19T04:14:30.437Z,9.20
2017-07-19T04:16:57.947Z,8.30
2017-07-19T04:19:25.555Z,9.60
2017-07-19T04:21:53.094Z,8.53
2017-07-19T04:24:20.682Z,9.23
2017-07-19T04:26:48.274Z,8.40
2017-07-19T04:29:15.885Z,10.50
2017-07-19T04:31:43.476Z,8.73
2017-07-19T04:34:11.019Z,9.20
2017-07-19T04:36:38.672Z,9.93
2017-07-19T04:39:06.291Z,9.20
2017-07-19T04:41:33.905Z,9.00
2017-07-19T04:44:01.436Z,8.87
2017-07-19T04:46:28.972Z,9.20
2017-07-19T04:48:56.585Z,8.83
2017-07-19T04:51:24.197Z,8.60
2017-07-19T04:53:52.522Z,8.50
2017-07-19T04:56:20.136Z,9.37
2017-07-19T04:58:47.711Z,9.13
2017-07-19T05:01:15.318Z,8.87
2017-07-19T05:03:42.858Z,9.33
2017-07-19T05:06:10.381Z,9.37
2017-07-19T05:08:37.920Z,8.90
2017-07-19T05:11:05.442Z,9.50
2017-07-19T05:13:32.988Z,9.30
2017-07-19T05:16:00.545Z,8.77
2017-07-19T05:18:28.090Z,9.80
2017-07-19T05:20:56.388Z,9.87
2017-07-19T05:23:23.929Z,8.43
2017-07-19T05:25:51.455Z,9.47
2017-07-19T05:28:18.968Z,9.70
2017-07-19T05:30:46.512Z,9.63
2017-07-19T05:33:14.813Z,9.60
2017-07-19T05:35:42.350Z,9.37
2017-07-19T05:38:09.866Z,9.20
2017-07-19T05:40:37.426Z,8.97
2017-07-19T05:43:04.973Z,10.00
2017-07-19T05:45:32.514Z,10.30
2017-07-19T05:48:00.044Z,10.43
2017-07-19T05:50:27.590Z,10.10
2017-07-19T05:52:55.167Z,10.57
2017-07-19T05:55:22.689Z,10.67
2017-07-19T05:57:50.225Z,10.30
2017-07-19T06:00:17.737Z,9.30
2017-07-19T06:02:45.281Z,10.47
2017-07-19T06:05:13.576Z,10.00
2017-07-19T06:07:41.113Z,9.70
2017-07-19T06:10:09.392Z,9.63
2017-07-19T06:12:37.676Z,10.00
2017-07-19T06:15:05.994Z,9.20
2017-07-19T06:17:33.513Z,9.63
2017-07-19T06:20:01.048Z,9.20
2017-07-19T06:22:28.580Z,9.33
2017-07-19T06:24:56.170Z,9.90
2017-07-19T06:27:23.689Z,9.13
2017-07-19T06:29:51.216Z,7.80
2017-07-19T06:32:18.724Z,8.03
2017-07-19T06:34:46.281Z,9.53
2017-07-19T06:37:13.796Z,9.67
2017-07-19T06:39:41.309Z,8.80
2017-07-19T06:42:08.845Z,8.30
2017-07-19T06:44:36.356Z,8.03
2017-07-19T06:47:04.653Z,7.37
2017-07-19T06:49:32.174Z,7.70
2017-07-19T06:52:00.476Z,8.40
2017-07-19T06:54:27.993Z,8.40
2017-07-19T06:56:55.528Z,8.60
2017-07-19T06:59:23.046Z,8.10
2017-07-19T07:01:50.603Z,8.50
2017-07-19T07:04:18.902Z,8.60
2017-07-19T07:06:46.416Z,7.77
2017-07-19T07:09:14.725Z,7.40
2017-07-19T07:11:42.244Z,8.50
2017-07-19T07:14:09.782Z,8.17
2017-07-19T07:16:37.297Z,9.30
2017-07-19T07:19:04.833Z,9.20
2017-07-19T07:21:33.108Z,8.53
2017-07-19T07:24:00.645Z,8.20
2017-07-19T07:26:28.352Z,8.30
2017-07-19T07:28:55.904Z,7.93
2017-07-19T07:31:24.181Z,7.80
2017-07-19T07:33:51.693Z,8.30
2017-07-19T07:36:19.221Z,7.00
2017-07-19T07:38:46.743Z,7.00
2017-07-19T07:41:15.055Z,7.40
2017-07-19T07:43:42.568Z,6.33
2017-07-19T07:46:10.132Z,7.03
2017-07-19T07:48:37.659Z,7.00
2017-07-19T07:51:05.189Z,6.87
2017-07-19T07:53:32.702Z,5.60
2017-07-19T07:56:00.248Z,5.90
2017-07-19T07:58:27.756Z,5.90
2017-07-19T08:00:55.270Z,5.70
2017-07-19T08:03:22.807Z,6.20
2017-07-19T08:05:50.330Z,5.40
2017-07-19T08:08:17.869Z,6.30
2017-07-19T08:10:45.398Z,6.13
2017-07-19T08:13:12.937Z,6.10
2017-07-19T08:15:40.458Z,6.10
2017-07-19T08:18:07.993Z,6.13
2017-07-19T08:20:36.260Z,5.27
2017-07-19T08:23:03.803Z,4.10
2017-07-19T08:25:31.324Z,4.20
2017-07-19T08:27:58.868Z,4.10
2017-07-19T08:30:26.402Z,4.37
2017-07-19T08:32:53.915Z,4.80
2017-07-19T08:35:21.440Z,4.80
2017-07-19T08:37:49.713Z,4.83
2017-07-19T08:40:18.016Z,4.57
2017-07-19T08:42:45.534Z,5.10
2017-07-19T08:45:13.829Z,4.70
2017-07-19T08:47:42.103Z,5.27
2017-07-19T08:50:09.660Z,4.87
2017-07-19T08:52:37.209Z,4.07
2017-07-19T08:55:05.493Z,4.60
2017-07-19T08:57:33.040Z,5.43
2017-07-19T09:00:01.329Z,5.00
2017-07-19T09:02:29.640Z,4.53
2017-07-19T09:04:57.145Z,4.50
2017-07-19T09:07:24.676Z,5.10
2017-07-19T09:09:52.188Z,5.10
2017-07-19T09:12:19.722Z,5.10
2017-07-19T09:14:47.232Z,4.97
2017-07-19T09:17:14.740Z,4.53
2017-07-19T09:19:43.064Z,5.53
2017-07-19T09:22:10.593Z,4.47
2017-07-19T09:24:39.028Z,3.50
2017-07-19T09:27:06.534Z,4.63
2017-07-19T09:29:34.058Z,4.47
2017-07-19T09:32:01.587Z,3.90
2017-07-19T09:34:29.137Z,4.00
2017-07-19T09:36:56.648Z,3.60
2017-07-19T09:39:24.944Z,3.43
2017-07-19T09:41:52.456Z,3.33
2017-07-19T09:44:19.964Z,3.60
2017-07-19T09:46:47.616Z,3.67
2017-07-19T09:49:15.913Z,3.73
2017-07-19T09:51:43.590Z,4.07
2017-07-19T09:54:11.096Z,3.30
2017-07-19T09:56:38.637Z,3.40
2017-07-19T09:59:06.149Z,3.67
2017-07-19T10:01:33.681Z,3.10
2017-07-19T10:04:01.188Z,2.50
2017-07-19T10:06:28.734Z,2.90
2017-07-19T10:08:56.241Z,2.50
2017-07-19T10:11:23.777Z,2.80
2017-07-19T10:13:51.285Z,2.37
2017-07-19T10:16:18.821Z,1.90
2017-07-19T10:18:46.329Z,2.30
2017-07-19T10:21:13.887Z,1.80
2017-07-19T10:23:41.402Z,2.00
2017-07-19T10:26:09.688Z,2.40
2017-07-19T10:28:37.246Z,2.10
2017-07-19T10:31:05.659Z,1.67
2017-07-19T10:33:33.210Z,2.20
2017-07-19T10:36:00.720Z,1.80
2017-07-19T10:38:28.260Z,1.67
2017-07-19T10:40:55.767Z,1.67
2017-07-19T10:43:23.316Z,1.90
2017-07-19T10:45:51.588Z,1.40
2017-07-19T10:48:19.905Z,1.50
2017-07-19T10:50:47.428Z,1.87
2017-07-19T10:53:15.709Z,1.87
2017-07-19T10:55:43.245Z,1.83
2017-07-19T10:58:10.753Z,1.80
2017-07-19T11:00:38.289Z,1.47
2017-07-19T11:03:05.821Z,1.70
2017-07-19T11:05:33.357Z,2.10
2017-07-19T11:08:00.874Z,1.53
2017-07-19T11:10:28.404Z,2.20
2017-07-19T11:12:55.915Z,2.00
2017-07-19T11:15:23.461Z,1.93
2017-07-19T11:17:50.978Z,1.90
2017-07-19T11:20:19.256Z,2.00
2017-07-19T11:22:46.887Z,1.80
2017-07-19T11:25:14.388Z,1.60
2017-07-19T11:27:43.619Z,2.83
2017-07-19T11:30:11.144Z,2.00
2017-07-19T11:32:39.435Z,2.00
2017-07-19T11:35:06.963Z,1.80
2017-07-19T11:37:34.493Z,2.03
2017-07-19T11:40:02.009Z,2.10
2017-07-19T11:42:29.545Z,2.20
2017-07-19T11:44:57.849Z,2.30
2017-07-19T11:47:25.416Z,2.03
2017-07-19T11:49:52.930Z,2.30
2017-07-19T11:52:20.489Z,2.27
2017-07-19T11:54:48.792Z,2.10
2017-07-19T11:57:16.297Z,2.17
2017-07-19T11:59:43.842Z,1.97
2017-07-19T12:02:11.356Z,1.90
2017-07-19T12:04:38.901Z,2.30
2017-07-19T12:07:07.305Z,2.07
2017-07-19T12:09:34.843Z,2.27
2017-07-19T12:12:03.130Z,2.00
2017-07-19T12:14:30.677Z,1.90
2017-07-19T12:16:58.961Z,2.10
2017-07-19T12:19:29.979Z,2.20
2017-07-19T12:21:57.492Z,2.00
2017-07-19T12:24:25.046Z,2.57
2017-07-19T12:26:53.474Z,2.43
2017-07-19T12:29:20.992Z,2.40
2017-07-19T12:31:48.532Z,2.00
2017-07-19T12:34:16.048Z,2.00
2017-07-19T12:36:43.581Z,2.40
2017-07-19T12:39:11.105Z,2.00
2017-07-19T12:41:38.644Z,2.30
2017-07-19T12:44:07.001Z,2.33
2017-07-19T12:46:34.530Z,3.07
2017-07-19T12:49:02.048Z,2.20
2017-07-19T12:51:30.372Z,2.30
2017-07-19T12:53:57.893Z,2.20
2017-07-19T12:56:25.430Z,2.40
2017-07-19T12:58:53.731Z,2.23
2017-07-19T13:01:21.239Z,1.90
2017-07-19T13:03:48.761Z,2.40
2017-07-19T13:06:16.346Z,2.07
2017-07-19T13:08:43.871Z,2.40
2017-07-19T13:11:11.909Z,2.40
2017-07-19T13:13:40.217Z,2.80
2017-07-19T13:16:07.740Z,2.37
2017-07-19T13:18:36.102Z,2.20
2017-07-19T13:21:03.612Z,2.13
2017-07-19T13:23:31.194Z,2.10
2017-07-19T13:25:58.748Z,2.10
2017-07-19T13:28:26.305Z,2.30
2017-07-19T13:30:53.847Z,2.87
2017-07-19T13:33:21.371Z,1.97
2017-07-19T13:35:48.913Z,1.90
2017-07-19T13:38:16.436Z,2.00
2017-07-19T13:40:43.975Z,2.00
2017-07-19T13:43:11.489Z,2.40
2017-07-19T13:45:39.005Z,2.10
2017-07-19T13:48:06.547Z,2.03
2017-07-19T13:50:34.070Z,2.10
2017-07-19T13:53:01.608Z,2.00
2017-07-19T13:55:29.120Z,2.13
2017-07-19T13:57:56.669Z,1.97
2017-07-19T14:00:24.949Z,2.30
2017-07-19T14:02:53.248Z,1.97
2017-07-19T14:05:20.800Z,2.10
2017-07-19T14:07:48.341Z,2.17
2017-07-19T14:10:16.628Z,2.27
2017-07-19T14:12:44.171Z,2.40
2017-07-19T14:15:11.684Z,2.40
2017-07-19T14:17:39.192Z,2.70
2017-07-19T14:20:06.724Z,2.40
2017-07-19T14:22:34.249Z,2.50
2017-07-19T14:25:01.785Z,2.23
2017-07-19T14:27:29.315Z,2.53
2017-07-19T14:29:57.633Z,2.30
2017-07-19T14:32:25.164Z,2.50
2017-07-19T14:34:53.460Z,2.67
2017-07-19T14:37:21.034Z,2.40
2017-07-19T14:39:48.569Z,2.57
2017-07-19T14:42:16.083Z,2.57
2017-07-19T14:44:43.649Z,2.33
2017-07-19T14:47:11.181Z,2.37
2017-07-19T14:49:38.703Z,2.47
2017-07-19T14:52:06.261Z,2.00
2017-07-19T14:54:33.785Z,2.30
2017-07-19T14:57:01.323Z,2.73
2017-07-19T14:59:28.872Z,2.60
2017-07-19T15:01:56.413Z,2.37
2017-07-19T15:04:23.926Z,2.70
2017-07-19T15:06:51.461Z,2.33
2017-07-19T15:09:18.997Z,2.20
2017-07-19T15:11:46.547Z,2.37
2017-07-19T15:14:14.077Z,2.43
2017-07-19T15:16:42.386Z,2.50
2017-07-19T15:19:09.910Z,2.33
2017-07-19T15:21:38.225Z,2.47
2017-07-19T15:24:05.746Z,2.13
2017-07-19T15:26:34.032Z,2.20
2017-07-19T15:29:01.696Z,2.10
2017-07-19T15:31:29.230Z,2.70
2017-07-19T15:33:56.792Z,2.43
2017-07-19T15:36:25.084Z,2.57
2017-07-19T15:38:53.385Z,2.47
2017-07-19T15:41:20.911Z,2.60
2017-07-19T15:43:48.451Z,2.37
2017-07-19T15:46:16.080Z,2.57
2017-07-19T15:48:43.616Z,2.27
2017-07-19T15:51:11.129Z,2.20
2017-07-19T15:53:38.685Z,2.40
2017-07-19T15:56:06.203Z,2.50
2017-07-19T15:58:33.721Z,2.63
2017-07-19T16:01:02.014Z,2.50
2017-07-19T16:03:29.537Z,2.60
2017-07-19T16:05:57.091Z,2.67
2017-07-19T16:08:24.602Z,2.73
2017-07-19T16:10:52.139Z,2.80
2017-07-19T16:13:20.432Z,2.40
2017-07-19T16:15:47.974Z,2.50
2017-07-19T16:18:16.253Z,2.63
2017-07-19T16:20:44.573Z,2.77
2017-07-19T16:23:12.091Z,2.60
2017-07-19T16:25:40.399Z,2.63
2017-07-19T16:28:07.917Z,2.83
2017-07-19T16:30:36.214Z,2.63
2017-07-19T16:33:03.744Z,2.70
2017-07-19T16:35:32.028Z,2.73
2017-07-19T16:37:59.571Z,2.63
2017-07-19T16:40:27.101Z,2.70
2017-07-19T16:42:54.639Z,2.30
2017-07-19T16:45:22.165Z,2.53
2017-07-19T16:47:50.474Z,2.27
2017-07-19T16:50:17.984Z,2.10
2017-07-19T16:52:45.518Z,2.33
2017-07-19T16:55:13.033Z,2.77
2017-07-19T16:57:40.580Z,2.50
2017-07-19T17:00:08.868Z,2.57
2017-07-19T17:02:36.390Z,2.30
2017-07-19T17:05:03.926Z,2.30
2017-07-19T17:07:31.448Z,2.80
2017-07-19T17:09:58.995Z,2.60
2017-07-19T17:12:27.271Z,2.50
2017-07-19T17:14:55.581Z,2.60
2017-07-19T17:17:23.096Z,2.43
2017-07-19T17:19:51.929Z,2.30
2017-07-19T17:22:19.450Z,2.60
2017-07-19T17:24:47.765Z,2.03
2017-07-19T17:27:15.288Z,2.50
2017-07-19T17:29:42.801Z,2.17
2017-07-19T17:32:10.339Z,2.30
2017-07-19T17:34:38.806Z,2.20
2017-07-19T17:37:06.333Z,2.13
2017-07-19T17:39:34.619Z,2.73
2017-07-19T17:42:02.186Z,1.83
2017-07-19T17:44:29.750Z,2.20
2017-07-19T17:46:57.302Z,2.40
2017-07-19T17:49:24.824Z,2.17
2017-07-19T17:51:52.377Z,2.23
2017-07-19T17:54:19.906Z,2.50
2017-07-19T17:56:47.453Z,2.47
2017-07-19T17:59:14.986Z,2.30
2017-07-19T18:01:43.289Z,2.23
2017-07-19T18:04:10.804Z,2.40
2017-07-19T18:06:39.095Z,1.90
2017-07-19T18:09:07.397Z,2.20
2017-07-19T18:11:34.919Z,2.90
2017-07-19T18:14:03.218Z,2.63
2017-07-19T18:16:30.759Z,2.70
2017-07-19T18:18:59.050Z,2.40
2017-07-19T18:21:26.583Z,2.30
2017-07-19T18:23:54.128Z,2.97
2017-07-19T18:26:21.693Z,3.20
2017-07-19T18:28:49.230Z,3.40
2017-07-19T18:31:16.754Z,2.30
2017-07-19T18:33:44.282Z,2.50
2017-07-19T18:36:12.565Z,2.60
2017-07-19T18:38:40.114Z,2.40
2017-07-19T18:41:07.636Z,3.00
2017-07-19T18:43:35.151Z,2.43
2017-07-19T18:46:03.458Z,2.80
2017-07-19T18:48:30.995Z,4.00
2017-07-19T18:50:58.527Z,2.80
2017-07-19T18:53:27.964Z,2.60
2017-07-19T18:55:55.836Z,2.90
2017-07-19T18:58:23.354Z,3.00
2017-07-19T19:00:51.648Z,2.70
2017-07-19T19:03:19.198Z,2.70
2017-07-19T19:05:46.735Z,2.87
2017-07-19T19:08:14.259Z,2.40
2017-07-19T19:10:41.916Z,2.50
2017-07-19T19:13:10.421Z,3.10
2017-07-19T19:15:37.946Z,3.30
2017-07-19T19:18:05.481Z,3.10
2017-07-19T19:20:33.813Z,3.97
2017-07-19T19:23:02.358Z,2.90
2017-07-19T19:25:29.885Z,4.00
2017-07-19T19:27:58.205Z,3.40
2017-07-19T19:30:25.950Z,3.00
2017-07-19T19:32:53.485Z,3.50
2017-07-19T19:35:21.769Z,3.00
2017-07-19T19:37:50.184Z,3.10
2017-07-19T19:40:17.848Z,3.07
2017-07-19T19:42:45.481Z,3.57
2017-07-19T19:45:13.220Z,5.80
2017-07-19T19:47:40.742Z,4.00
2017-07-19T19:50:08.278Z,3.40
2017-07-19T19:52:38.881Z,2.67
2017-07-19T19:55:07.184Z,3.30
2017-07-19T19:57:34.697Z,3.63
2017-07-19T20:00:03.024Z,3.43
2017-07-19T20:02:30.565Z,3.63
2017-07-19T20:04:58.098Z,3.40
2017-07-19T20:07:25.621Z,3.60
2017-07-19T20:09:53.169Z,3.77
2017-07-19T20:12:20.680Z,3.70
2017-07-19T20:14:48.957Z,3.73
2017-07-19T20:17:17.277Z,4.10
2017-07-19T20:19:44.793Z,3.73
2017-07-19T20:22:13.101Z,3.20
2017-07-19T20:24:40.617Z,3.00
2017-07-19T20:27:08.933Z,3.60
2017-07-19T20:29:36.460Z,3.97
2017-07-19T20:32:03.997Z,4.50
2017-07-19T20:34:31.573Z,3.70
2017-07-19T20:36:59.114Z,3.77
2017-07-19T20:39:26.625Z,3.73
2017-07-19T20:41:54.165Z,3.47
2017-07-19T20:44:21.745Z,4.00
2017-07-19T20:46:49.294Z,4.57
2017-07-19T20:49:16.812Z,3.50
2017-07-19T20:51:44.337Z,4.20
2017-07-19T20:54:11.871Z,4.20
2017-07-19T20:56:39.390Z,4.50
2017-07-19T20:59:06.985Z,3.53
2017-07-19T21:01:34.509Z,4.50
2017-07-19T21:04:02.542Z,3.97
2017-07-19T21:06:30.188Z,4.07
2017-07-19T21:08:58.052Z,4.07
2017-07-19T21:11:25.866Z,4.03
2017-07-19T21:13:53.447Z,4.43
2017-07-19T21:16:21.775Z,5.23
2017-07-19T21:18:49.359Z,4.20
2017-07-19T21:21:16.911Z,3.80
2017-07-19T21:23:44.463Z,4.23
2017-07-19T21:26:12.038Z,4.10
2017-07-19T21:28:39.593Z,3.53
2017-07-19T21:31:07.168Z,4.07
2017-07-19T21:33:34.748Z,4.03
2017-07-19T21:36:02.355Z,4.30
2017-07-19T21:38:29.926Z,3.37
2017-07-19T21:40:57.566Z,4.20
2017-07-19T21:43:25.126Z,3.93
2017-07-19T21:45:52.740Z,4.10
2017-07-19T21:48:21.154Z,3.53
2017-07-19T21:50:48.702Z,3.93
2017-07-19T21:53:16.287Z,4.40
2017-07-19T21:55:43.851Z,4.10
2017-07-19T21:58:11.419Z,3.63
2017-07-19T22:00:38.981Z,3.70
2017-07-19T22:03:06.565Z,3.90
2017-07-19T22:05:34.131Z,3.80
2017-07-19T22:08:01.712Z,4.43
2017-07-19T22:10:29.273Z,3.50
2017-07-19T22:13:00.317Z,4.40
2017-07-19T22:15:27.880Z,4.10
2017-07-19T22:17:55.479Z,3.60
2017-07-19T22:20:23.067Z,3.63
2017-07-19T22:22:50.623Z,3.67
2017-07-19T22:25:18.212Z,3.90
2017-07-19T22:27:45.775Z,4.07
2017-07-19T22:30:13.347Z,4.30
2017-07-19T22:32:40.920Z,3.97
2017-07-19T22:35:08.540Z,3.87
2017-07-19T22:37:36.865Z,3.90
2017-07-19T22:40:04.433Z,4.33
2017-07-19T22:42:32.027Z,3.70
2017-07-19T22:45:00.364Z,3.40
2017-07-19T22:47:27.948Z,3.00
2017-07-19T22:49:55.519Z,3.40
2017-07-19T22:52:23.858Z,4.50
2017-07-19T22:54:51.413Z,3.30
2017-07-19T22:57:19.004Z,3.90
2017-07-19T22:59:46.568Z,3.30
2017-07-19T23:02:14.153Z,3.83
2017-07-19T23:04:41.717Z,3.67
2017-07-19T23:07:09.651Z,3.80
2017-07-19T23:09:37.228Z,3.50
2017-07-19T23:12:05.729Z,3.30
2017-07-19T23:14:33.348Z,3.70
2017-07-19T23:17:00.936Z,3.60
2017-07-19T23:19:28.526Z,3.83
2017-07-19T23:21:56.099Z,4.00
2017-07-19T23:24:23.686Z,4.67
2017-07-19T23:26:51.257Z,4.10
2017-07-19T23:29:18.845Z,4.10
2017-07-19T23:31:46.406Z,4.50
2017-07-19T23:34:13.988Z,5.13
2017-07-19T23:36:41.547Z,4.97
2017-07-19T23:39:09.107Z,4.50
2017-07-19T23:41:36.684Z,5.77
2017-07-19T23:44:04.250Z,4.40
2017-07-19T23:46:31.839Z,4.47
2017-07-19T23:48:59.398Z,5.73
2017-07-19T23:51:26.987Z,4.73
2017-07-19T23:53:54.544Z,4.87
2017-07-19T23:56:22.118Z,5.23
2017-07-19T23:58:49.704Z,5.23
